createdAt,value
2018-02-21T00:00:47.047Z,1018.16
2018-02-21T00:01:47.043Z,1018.18
2018-02-21T00:02:47.053Z,1018.20
2018-02-21T00:03:47.057Z,1018.22
2018-02-21T00:04:47.053Z,1018.21
2018-02-21T00:05:47.048Z,1018.16
2018-02-21T00:06:47.052Z,1018.15
2018-02-21T00:07:47.048Z,1018.16
2018-02-21T00:08:48.006Z,1018.14
2018-02-21T00:09:47.052Z,1018.09
2018-02-21T00:10:47.061Z,1018.05
2018-02-21T00:11:47.057Z,1018.00
2018-02-21T00:12:47.053Z,1017.99
2018-02-21T00:13:47.056Z,1017.97
2018-02-21T00:14:47.053Z,1017.96
2018-02-21T00:15:47.055Z,1017.97
2018-02-21T00:16:47.053Z,1017.98
2018-02-21T00:17:47.057Z,1018.02
2018-02-21T00:18:47.059Z,1018.06
2018-02-21T00:19:47.057Z,1018.05
2018-02-21T00:20:47.052Z,1018.10
2018-02-21T00:21:47.056Z,1018.17
2018-02-21T00:22:47.057Z,1018.16
2018-02-21T00:23:47.058Z,1018.20
2018-02-21T00:24:47.057Z,1018.17
2018-02-21T00:25:47.077Z,1018.16
2018-02-21T00:26:47.062Z,1018.17
2018-02-21T00:27:47.059Z,1018.14
2018-02-21T00:28:47.058Z,1018.09
2018-02-21T00:29:47.056Z,1018.05
2018-02-21T00:30:47.061Z,1017.98
2018-02-21T00:31:47.061Z,1018.00
2018-02-21T00:32:47.062Z,1017.93
2018-02-21T00:33:47.071Z,1017.93
2018-02-21T00:34:47.060Z,1017.93
2018-02-21T00:35:47.060Z,1017.91
2018-02-21T00:36:47.067Z,1017.95
2018-02-21T00:37:47.060Z,1017.94
2018-02-21T00:38:47.062Z,1017.93
2018-02-21T00:39:47.082Z,1017.96
2018-02-21T00:40:47.072Z,1018.02
2018-02-21T00:41:47.061Z,1018.01
2018-02-21T00:42:47.058Z,1018.05
2018-02-21T00:43:47.076Z,1018.11
2018-02-21T00:44:47.062Z,1018.12
2018-02-21T00:45:47.066Z,1018.19
2018-02-21T00:46:47.066Z,1018.21
2018-02-21T00:47:47.063Z,1018.24
2018-02-21T00:48:47.064Z,1018.24
2018-02-21T00:49:47.066Z,1018.28
2018-02-21T00:50:47.063Z,1018.24
2018-02-21T00:51:47.058Z,1018.25
2018-02-21T00:52:47.068Z,1018.25
2018-02-21T00:53:47.072Z,1018.22
2018-02-21T00:54:47.065Z,1018.22
2018-02-21T00:55:47.066Z,1018.21
2018-02-21T00:56:47.073Z,1018.18
2018-02-21T00:57:47.068Z,1018.16
2018-02-21T00:58:47.063Z,1018.13
2018-02-21T00:59:47.063Z,1018.16
2018-02-21T01:00:47.066Z,1018.15
2018-02-21T01:01:47.067Z,1018.17
2018-02-21T01:02:47.064Z,1018.17
2018-02-21T01:03:47.068Z,1018.15
2018-02-21T01:04:47.076Z,1018.18
2018-02-21T01:05:47.066Z,1018.19
2018-02-21T01:06:47.071Z,1018.21
2018-02-21T01:07:47.087Z,1018.20
2018-02-21T01:08:47.066Z,1018.22
2018-02-21T01:10:40.000Z,1018.24
2018-02-21T01:11:39.970Z,1018.16
2018-02-21T01:13:32.946Z,1018.19
2018-02-21T01:14:32.925Z,1018.19
2018-02-21T01:16:25.888Z,1018.13
2018-02-21T01:17:25.882Z,1018.12
2018-02-21T01:19:18.864Z,1018.09
2018-02-21T01:20:18.838Z,1018.05
2018-02-21T01:22:11.821Z,1018.01
2018-02-21T01:23:11.793Z,1018.05
2018-02-21T01:25:04.763Z,1017.98
2018-02-21T01:26:04.752Z,1017.97
2018-02-21T01:27:57.735Z,1017.96
2018-02-21T01:28:57.713Z,1017.94
2018-02-21T01:30:50.675Z,1017.94
2018-02-21T01:31:50.675Z,1017.95
2018-02-21T01:33:43.685Z,1017.98
2018-02-21T01:34:43.629Z,1017.98
2018-02-21T01:35:43.641Z,1017.96
2018-02-21T01:36:43.625Z,1017.98
2018-02-21T01:37:43.626Z,1017.94
2018-02-21T01:38:43.627Z,1017.94
2018-02-21T01:39:43.629Z,1017.93
2018-02-21T01:40:43.624Z,1017.90
2018-02-21T01:41:43.629Z,1017.87
2018-02-21T01:42:43.625Z,1017.91
2018-02-21T01:43:43.631Z,1017.88
2018-02-21T01:44:43.629Z,1017.86
2018-02-21T01:45:43.627Z,1017.93
2018-02-21T01:46:43.626Z,1017.97
2018-02-21T01:47:43.630Z,1018.06
2018-02-21T01:48:43.631Z,1018.11
2018-02-21T01:49:43.629Z,1018.16
2018-02-21T01:50:43.627Z,1018.21
2018-02-21T01:51:43.639Z,1018.20
2018-02-21T01:52:43.634Z,1018.22
2018-02-21T01:53:43.627Z,1018.15
2018-02-21T01:54:43.631Z,1018.17
2018-02-21T01:55:43.632Z,1018.12
2018-02-21T01:56:43.629Z,1018.09
2018-02-21T01:57:43.626Z,1018.05
2018-02-21T01:58:43.627Z,1018.02
2018-02-21T01:59:43.633Z,1017.99
2018-02-21T02:00:43.628Z,1017.97
2018-02-21T02:01:43.628Z,1017.99
2018-02-21T02:02:43.630Z,1018.01
2018-02-21T02:03:43.628Z,1018.04
2018-02-21T02:04:43.635Z,1018.04
2018-02-21T02:05:43.631Z,1018.04
2018-02-21T02:06:43.629Z,1018.07
2018-02-21T02:07:43.632Z,1018.06
2018-02-21T02:08:43.634Z,1018.05
2018-02-21T02:09:43.634Z,1018.11
2018-02-21T02:10:43.638Z,1018.11
2018-02-21T02:11:43.627Z,1018.13
2018-02-21T02:12:43.631Z,1018.10
2018-02-21T02:13:43.636Z,1018.11
2018-02-21T02:14:43.634Z,1018.11
2018-02-21T02:15:43.635Z,1018.12
2018-02-21T02:16:43.633Z,1018.09
2018-02-21T02:17:43.627Z,1018.11
2018-02-21T02:18:43.630Z,1018.13
2018-02-21T02:19:43.639Z,1018.11
2018-02-21T02:20:43.633Z,1018.14
2018-02-21T02:21:43.629Z,1018.16
2018-02-21T02:22:43.632Z,1018.14
2018-02-21T02:23:43.633Z,1018.19
2018-02-21T02:24:43.643Z,1018.25
2018-02-21T02:25:43.631Z,1018.24
2018-02-21T02:26:43.628Z,1018.26
2018-02-21T02:27:43.638Z,1018.27
2018-02-21T02:28:43.634Z,1018.26
2018-02-21T02:29:43.628Z,1018.30
2018-02-21T02:30:43.630Z,1018.27
2018-02-21T02:31:43.635Z,1018.27
2018-02-21T02:32:43.631Z,1018.25
2018-02-21T02:33:43.634Z,1018.33
2018-02-21T02:34:43.626Z,1018.31
2018-02-21T02:35:43.633Z,1018.38
2018-02-21T02:36:43.630Z,1018.37
2018-02-21T02:37:43.634Z,1018.41
2018-02-21T02:38:43.637Z,1018.47
2018-02-21T02:39:43.634Z,1018.50
2018-02-21T02:40:43.635Z,1018.54
2018-02-21T02:41:43.636Z,1018.54
2018-02-21T02:42:43.633Z,1018.56
2018-02-21T02:43:43.633Z,1018.58
2018-02-21T02:44:43.634Z,1018.64
2018-02-21T02:45:43.633Z,1018.71
2018-02-21T02:46:43.628Z,1018.76
2018-02-21T02:47:43.638Z,1018.79
2018-02-21T02:48:43.641Z,1018.80
2018-02-21T02:49:43.629Z,1018.79
2018-02-21T02:50:43.635Z,1018.80
2018-02-21T02:51:43.632Z,1018.79
2018-02-21T02:52:43.636Z,1018.76
2018-02-21T02:53:43.653Z,1018.73
2018-02-21T02:54:46.054Z,1018.73
2018-02-21T02:55:43.632Z,1018.72
2018-02-21T02:56:43.637Z,1018.74
2018-02-21T02:57:43.641Z,1018.72
2018-02-21T02:58:43.639Z,1018.65
2018-02-21T02:59:43.644Z,1018.72
2018-02-21T03:00:43.640Z,1018.76
2018-02-21T03:01:43.635Z,1018.73
2018-02-21T03:02:43.637Z,1018.77
2018-02-21T03:03:43.640Z,1018.76
2018-02-21T03:04:43.637Z,1018.79
2018-02-21T03:05:43.635Z,1018.84
2018-02-21T03:06:43.635Z,1018.82
2018-02-21T03:07:43.640Z,1018.79
2018-02-21T03:08:43.632Z,1018.81
2018-02-21T03:09:43.639Z,1018.87
2018-02-21T03:10:43.636Z,1018.85
2018-02-21T03:11:43.642Z,1018.85
2018-02-21T03:12:43.638Z,1018.82
2018-02-21T03:13:43.640Z,1018.78
2018-02-21T03:14:43.636Z,1018.77
2018-02-21T03:15:43.635Z,1018.77
2018-02-21T03:16:43.639Z,1018.76
2018-02-21T03:17:43.633Z,1018.77
2018-02-21T03:18:43.638Z,1018.75
2018-02-21T03:19:43.646Z,1018.82
2018-02-21T03:20:43.640Z,1018.84
2018-02-21T03:21:43.633Z,1018.83
2018-02-21T03:22:43.639Z,1018.82
2018-02-21T03:23:43.634Z,1018.83
2018-02-21T03:24:43.645Z,1018.83
2018-02-21T03:25:43.634Z,1018.81
2018-02-21T03:26:43.659Z,1018.82
2018-02-21T03:27:43.640Z,1018.81
2018-02-21T03:28:43.636Z,1018.82
2018-02-21T03:29:43.641Z,1018.78
2018-02-21T03:30:43.638Z,1018.77
2018-02-21T03:31:43.640Z,1018.72
2018-02-21T03:32:43.641Z,1018.71
2018-02-21T03:33:43.641Z,1018.73
2018-02-21T03:34:43.639Z,1018.71
2018-02-21T03:35:43.642Z,1018.72
2018-02-21T03:36:43.648Z,1018.76
2018-02-21T03:37:43.635Z,1018.77
2018-02-21T03:38:43.636Z,1018.73
2018-02-21T03:39:43.643Z,1018.75
2018-02-21T03:40:43.644Z,1018.75
2018-02-21T03:41:43.635Z,1018.75
2018-02-21T03:42:43.670Z,1018.75
2018-02-21T03:43:43.642Z,1018.75
2018-02-21T03:44:43.640Z,1018.78
2018-02-21T03:45:43.638Z,1018.79
2018-02-21T03:46:43.647Z,1018.80
2018-02-21T03:47:43.636Z,1018.79
2018-02-21T03:48:43.645Z,1018.80
2018-02-21T03:49:43.638Z,1018.80
2018-02-21T03:50:43.642Z,1018.83
2018-02-21T03:51:43.642Z,1018.82
2018-02-21T03:52:43.644Z,1018.86
2018-02-21T03:53:43.641Z,1018.88
2018-02-21T03:54:43.645Z,1018.88
2018-02-21T03:55:43.637Z,1018.93
2018-02-21T03:56:43.640Z,1018.97
2018-02-21T03:57:43.642Z,1018.96
2018-02-21T03:58:43.648Z,1018.95
2018-02-21T03:59:43.660Z,1018.98
2018-02-21T04:00:43.729Z,1018.95
2018-02-21T04:01:43.641Z,1018.87
2018-02-21T04:02:43.656Z,1018.91
2018-02-21T04:03:43.643Z,1018.91
2018-02-21T04:04:43.646Z,1018.93
2018-02-21T04:05:43.648Z,1018.93
2018-02-21T04:06:43.641Z,1018.93
2018-02-21T04:07:43.641Z,1018.98
2018-02-21T04:08:43.644Z,1018.97
2018-02-21T04:09:43.642Z,1018.95
2018-02-21T04:10:43.644Z,1018.93
2018-02-21T04:11:43.643Z,1018.92
2018-02-21T04:12:43.642Z,1018.93
2018-02-21T04:13:43.642Z,1018.90
2018-02-21T04:14:43.642Z,1018.88
2018-02-21T04:15:43.647Z,1018.90
2018-02-21T04:16:43.644Z,1018.85
2018-02-21T04:17:43.639Z,1018.88
2018-02-21T04:18:43.644Z,1018.92
2018-02-21T04:19:43.648Z,1018.90
2018-02-21T04:20:43.654Z,1018.84
2018-02-21T04:21:43.653Z,1018.87
2018-02-21T04:22:43.653Z,1018.88
2018-02-21T04:23:43.686Z,1018.92
2018-02-21T04:24:43.648Z,1018.94
2018-02-21T04:25:45.596Z,1018.92
2018-02-21T04:26:44.323Z,1018.87
2018-02-21T04:27:44.803Z,1018.93
2018-02-21T04:28:43.646Z,1018.88
2018-02-21T04:29:43.650Z,1018.85
2018-02-21T04:30:43.648Z,1018.86
2018-02-21T04:31:43.641Z,1018.88
2018-02-21T04:32:43.647Z,1018.87
2018-02-21T04:33:43.644Z,1018.84
2018-02-21T04:34:43.644Z,1018.86
2018-02-21T04:35:43.645Z,1018.84
2018-02-21T04:36:43.643Z,1018.81
2018-02-21T04:37:43.641Z,1018.82
2018-02-21T04:38:43.645Z,1018.79
2018-02-21T04:39:43.647Z,1018.82
2018-02-21T04:40:43.659Z,1018.81
2018-02-21T04:41:43.642Z,1018.81
2018-02-21T04:42:43.645Z,1018.78
2018-02-21T04:43:43.651Z,1018.79
2018-02-21T04:44:43.662Z,1018.76
2018-02-21T04:45:43.648Z,1018.75
2018-02-21T04:46:43.654Z,1018.76
2018-02-21T04:47:43.647Z,1018.73
2018-02-21T04:48:43.649Z,1018.71
2018-02-21T04:49:43.643Z,1018.69
2018-02-21T04:50:43.664Z,1018.73
2018-02-21T04:51:43.642Z,1018.68
2018-02-21T04:52:43.638Z,1018.69
2018-02-21T04:53:43.643Z,1018.69
2018-02-21T04:54:43.658Z,1018.72
2018-02-21T04:55:43.649Z,1018.74
2018-02-21T04:56:43.639Z,1018.77
2018-02-21T04:57:43.644Z,1018.78
2018-02-21T04:58:43.649Z,1018.80
2018-02-21T04:59:43.645Z,1018.78
2018-02-21T05:00:43.641Z,1018.78
2018-02-21T05:01:43.643Z,1018.75
2018-02-21T05:02:43.659Z,1018.74
2018-02-21T05:03:43.648Z,1018.72
2018-02-21T05:04:43.643Z,1018.68
2018-02-21T05:05:43.646Z,1018.68
2018-02-21T05:06:43.641Z,1018.67
2018-02-21T05:07:43.647Z,1018.69
2018-02-21T05:08:43.642Z,1018.67
2018-02-21T05:09:43.651Z,1018.69
2018-02-21T05:10:43.645Z,1018.70
2018-02-21T05:11:43.649Z,1018.68
2018-02-21T05:12:43.642Z,1018.70
2018-02-21T05:13:43.639Z,1018.67
2018-02-21T05:14:43.643Z,1018.69
2018-02-21T05:15:43.639Z,1018.69
2018-02-21T05:16:43.649Z,1018.71
2018-02-21T05:17:43.646Z,1018.71
2018-02-21T05:18:43.649Z,1018.73
2018-02-21T05:19:43.648Z,1018.77
2018-02-21T05:20:43.642Z,1018.74
2018-02-21T05:21:43.643Z,1018.76
2018-02-21T05:22:43.643Z,1018.74
2018-02-21T05:23:43.639Z,1018.73
2018-02-21T05:24:43.661Z,1018.71
2018-02-21T05:25:43.640Z,1018.72
2018-02-21T05:26:43.649Z,1018.73
2018-02-21T05:27:43.638Z,1018.71
2018-02-21T05:28:43.644Z,1018.67
2018-02-21T05:29:43.674Z,1018.73
2018-02-21T05:30:43.649Z,1018.73
2018-02-21T05:31:43.649Z,1018.69
2018-02-21T05:32:43.647Z,1018.72
2018-02-21T05:33:43.641Z,1018.72
2018-02-21T05:34:43.636Z,1018.73
2018-02-21T05:35:43.644Z,1018.69
2018-02-21T05:36:43.685Z,1018.74
2018-02-21T05:37:43.648Z,1018.79
2018-02-21T05:38:43.644Z,1018.78
2018-02-21T05:39:43.645Z,1018.81
2018-02-21T05:40:43.637Z,1018.82
2018-02-21T05:41:43.644Z,1018.90
2018-02-21T05:42:43.635Z,1018.97
2018-02-21T05:43:43.639Z,1018.97
2018-02-21T05:44:43.645Z,1019.02
2018-02-21T05:45:43.639Z,1019.03
2018-02-21T05:46:43.635Z,1019.10
2018-02-21T05:47:43.640Z,1019.09
2018-02-21T05:48:43.640Z,1019.11
2018-02-21T05:49:43.636Z,1019.13
2018-02-21T05:50:43.635Z,1019.11
2018-02-21T05:51:43.637Z,1019.12
2018-02-21T05:52:43.640Z,1019.18
2018-02-21T05:53:43.630Z,1019.17
2018-02-21T05:54:43.637Z,1019.19
2018-02-21T05:55:43.637Z,1019.19
2018-02-21T05:56:43.639Z,1019.20
2018-02-21T05:57:43.638Z,1019.22
2018-02-21T05:58:43.726Z,1019.20
2018-02-21T05:59:43.637Z,1019.18
2018-02-21T06:00:43.641Z,1019.14
2018-02-21T06:01:43.650Z,1019.14
2018-02-21T06:02:43.637Z,1019.17
2018-02-21T06:03:43.635Z,1019.17
2018-02-21T06:04:43.633Z,1019.19
2018-02-21T06:05:43.637Z,1019.22
2018-02-21T06:06:43.640Z,1019.28
2018-02-21T06:07:43.659Z,1019.29
2018-02-21T06:08:43.631Z,1019.37
2018-02-21T06:09:43.661Z,1019.40
2018-02-21T06:10:43.639Z,1019.41
2018-02-21T06:11:43.631Z,1019.39
2018-02-21T06:12:43.628Z,1019.38
2018-02-21T06:13:43.631Z,1019.40
2018-02-21T06:14:43.631Z,1019.42
2018-02-21T06:15:43.628Z,1019.39
2018-02-21T06:16:43.631Z,1019.39
2018-02-21T06:17:43.626Z,1019.42
2018-02-21T06:18:43.641Z,1019.45
2018-02-21T06:19:43.629Z,1019.48
2018-02-21T06:20:43.678Z,1019.46
2018-02-21T06:21:43.632Z,1019.48
2018-02-21T06:22:43.644Z,1019.54
2018-02-21T06:23:43.628Z,1019.53
2018-02-21T06:24:43.631Z,1019.55
2018-02-21T06:25:43.636Z,1019.55
2018-02-21T06:26:43.673Z,1019.59
2018-02-21T06:27:43.642Z,1019.60
2018-02-21T06:29:36.589Z,1019.55
2018-02-21T06:30:36.569Z,1019.62
2018-02-21T06:32:29.530Z,1019.61
2018-02-21T06:33:29.522Z,1019.62
2018-02-21T06:35:22.507Z,1019.64
2018-02-21T06:36:22.483Z,1019.62
2018-02-21T06:38:15.443Z,1019.56
2018-02-21T06:39:15.442Z,1019.57
2018-02-21T06:41:08.418Z,1019.52
2018-02-21T06:42:08.399Z,1019.49
2018-02-21T06:44:01.381Z,1019.48
2018-02-21T06:45:01.351Z,1019.45
2018-02-21T06:46:54.317Z,1019.44
2018-02-21T06:47:54.313Z,1019.41
2018-02-21T06:49:47.298Z,1019.41
2018-02-21T06:50:47.276Z,1019.37
2018-02-21T06:52:40.235Z,1019.34
2018-02-21T06:53:40.223Z,1019.31
2018-02-21T06:55:33.212Z,1019.31
2018-02-21T06:56:33.183Z,1019.30
2018-02-21T06:58:26.637Z,1019.29
2018-02-21T06:59:26.141Z,1019.35
2018-02-21T07:01:19.124Z,1019.39
2018-02-21T07:02:19.093Z,1019.44
2018-02-21T07:04:12.060Z,1019.42
2018-02-21T07:05:12.056Z,1019.47
2018-02-21T07:07:05.042Z,1019.46
2018-02-21T07:08:05.009Z,1019.45
2018-02-21T07:09:57.991Z,1019.46
2018-02-21T07:10:57.970Z,1019.42
2018-02-21T07:12:50.934Z,1019.46
2018-02-21T07:13:50.925Z,1019.50
2018-02-21T07:15:43.905Z,1019.57
2018-02-21T07:16:43.884Z,1019.54
2018-02-21T07:18:36.846Z,1019.46
2018-02-21T07:19:36.842Z,1019.45
2018-02-21T07:21:29.824Z,1019.43
2018-02-21T07:22:29.799Z,1019.44
2018-02-21T07:24:22.761Z,1019.35
2018-02-21T07:25:22.759Z,1019.41
2018-02-21T07:27:15.737Z,1019.40
2018-02-21T07:28:15.708Z,1019.41
2018-02-21T07:30:08.704Z,1019.39
2018-02-21T07:31:08.667Z,1019.39
2018-02-21T07:33:01.623Z,1019.36
2018-02-21T07:34:01.624Z,1019.43
2018-02-21T07:35:54.606Z,1019.44
2018-02-21T07:36:54.580Z,1019.43
2018-02-21T07:38:47.546Z,1019.46
2018-02-21T07:39:47.540Z,1019.47
2018-02-21T07:41:40.520Z,1019.46
2018-02-21T07:42:40.550Z,1019.44
2018-02-21T07:44:33.458Z,1019.35
2018-02-21T07:45:33.453Z,1019.37
2018-02-21T07:47:26.441Z,1019.40
2018-02-21T07:48:26.411Z,1019.38
2018-02-21T07:50:19.387Z,1019.36
2018-02-21T07:51:19.372Z,1019.34
2018-02-21T07:53:12.353Z,1019.35
2018-02-21T07:54:12.327Z,1019.34
2018-02-21T07:56:05.309Z,1019.38
2018-02-21T07:57:05.284Z,1019.35
2018-02-21T07:58:58.240Z,1019.35
2018-02-21T07:59:58.243Z,1019.35
2018-02-21T08:01:51.220Z,1019.35
2018-02-21T08:02:51.199Z,1019.40
2018-02-21T08:04:44.162Z,1019.43
2018-02-21T08:05:44.158Z,1019.45
2018-02-21T08:07:37.635Z,1019.75
2018-02-21T08:08:37.115Z,1019.92
2018-02-21T08:10:30.075Z,1020.04
2018-02-21T08:11:30.072Z,1020.05
2018-02-21T08:13:23.052Z,1020.05
2018-02-21T08:14:23.028Z,1020.10
2018-02-21T08:16:16.057Z,1020.28
2018-02-21T08:17:15.987Z,1020.30
2018-02-21T08:18:15.988Z,1020.31
2018-02-21T08:19:15.994Z,1020.37
2018-02-21T08:20:16.004Z,1020.39
2018-02-21T08:21:16.003Z,1020.38
2018-02-21T08:22:16.006Z,1020.41
2018-02-21T08:23:16.012Z,1020.46
2018-02-21T08:24:16.018Z,1020.47
2018-02-21T08:25:16.020Z,1020.46
2018-02-21T08:26:16.029Z,1020.47
2018-02-21T08:27:16.029Z,1020.54
2018-02-21T08:28:16.141Z,1020.53
2018-02-21T08:29:16.040Z,1020.53
2018-02-21T08:30:16.046Z,1020.54
2018-02-21T08:31:16.055Z,1020.57
2018-02-21T08:32:16.077Z,1020.61
2018-02-21T08:33:16.131Z,1020.65
2018-02-21T08:34:16.121Z,1020.63
2018-02-21T08:35:16.139Z,1020.65
2018-02-21T08:36:16.081Z,1020.68
2018-02-21T08:37:16.143Z,1020.65
2018-02-21T08:38:16.101Z,1020.66
2018-02-21T08:39:16.162Z,1020.63
2018-02-21T08:40:16.143Z,1020.62
2018-02-21T08:41:16.168Z,1020.61
2018-02-21T08:42:16.180Z,1020.61
2018-02-21T08:43:16.181Z,1020.60
2018-02-21T08:44:16.182Z,1020.64
2018-02-21T08:45:16.191Z,1020.60
2018-02-21T08:46:16.208Z,1020.59
2018-02-21T08:47:16.202Z,1020.60
2018-02-21T08:48:16.227Z,1020.59
2018-02-21T08:49:16.226Z,1020.64
2018-02-21T08:50:16.239Z,1020.65
2018-02-21T08:51:16.275Z,1020.66
2018-02-21T08:52:16.281Z,1020.64
2018-02-21T08:53:16.300Z,1020.67
2018-02-21T08:54:16.285Z,1020.67
2018-02-21T08:55:16.239Z,1020.69
2018-02-21T08:56:16.253Z,1020.68
2018-02-21T08:57:16.262Z,1020.66
2018-02-21T08:58:16.266Z,1020.64
2018-02-21T08:59:16.280Z,1020.66
2018-02-21T09:00:16.292Z,1020.69
2018-02-21T09:01:16.304Z,1020.66
2018-02-21T09:02:16.311Z,1020.64
2018-02-21T09:03:16.320Z,1020.70
2018-02-21T09:04:16.335Z,1020.67
2018-02-21T09:05:16.347Z,1020.68
2018-02-21T09:06:16.349Z,1020.68
2018-02-21T09:07:16.361Z,1020.72
2018-02-21T09:08:16.377Z,1020.69
2018-02-21T09:09:16.385Z,1020.73
2018-02-21T09:10:16.396Z,1020.77
2018-02-21T09:11:16.406Z,1020.75
2018-02-21T09:12:16.421Z,1020.80
2018-02-21T09:13:16.428Z,1020.76
2018-02-21T09:14:16.460Z,1020.77
2018-02-21T09:15:16.456Z,1020.81
2018-02-21T09:16:16.467Z,1020.78
2018-02-21T09:17:16.533Z,1020.82
2018-02-21T09:18:16.491Z,1020.82
2018-02-21T09:19:16.729Z,1020.85
2018-02-21T09:20:16.507Z,1020.85
2018-02-21T09:21:16.525Z,1020.86
2018-02-21T09:22:16.531Z,1020.83
2018-02-21T09:23:16.605Z,1020.90
2018-02-21T09:24:16.557Z,1020.89
2018-02-21T09:25:16.571Z,1020.86
2018-02-21T09:26:16.579Z,1020.90
2018-02-21T09:27:16.589Z,1020.85
2018-02-21T09:28:16.604Z,1020.85
2018-02-21T09:29:16.616Z,1020.83
2018-02-21T09:30:16.621Z,1020.87
2018-02-21T09:31:16.633Z,1020.91
2018-02-21T09:32:16.651Z,1020.88
2018-02-21T09:33:16.664Z,1020.90
2018-02-21T09:34:16.670Z,1020.89
2018-02-21T09:35:16.679Z,1020.89
2018-02-21T09:36:16.695Z,1020.88
2018-02-21T09:37:16.701Z,1020.91
2018-02-21T09:38:16.714Z,1020.91
2018-02-21T09:39:16.732Z,1020.90
2018-02-21T09:40:16.738Z,1020.89
2018-02-21T09:41:16.751Z,1020.88
2018-02-21T09:42:16.761Z,1020.81
2018-02-21T09:43:16.780Z,1020.86
2018-02-21T09:44:16.788Z,1020.87
2018-02-21T09:45:16.800Z,1020.87
2018-02-21T09:46:16.808Z,1020.89
2018-02-21T09:47:16.827Z,1020.91
2018-02-21T09:48:16.860Z,1020.96
2018-02-21T09:49:16.847Z,1020.98
2018-02-21T09:50:16.857Z,1021.00
2018-02-21T09:51:16.872Z,1021.02
2018-02-21T09:52:16.879Z,1021.03
2018-02-21T09:53:16.890Z,1021.01
2018-02-21T09:54:16.912Z,1021.00
2018-02-21T09:55:16.918Z,1021.00
2018-02-21T09:56:16.932Z,1020.97
2018-02-21T09:57:16.943Z,1020.98
2018-02-21T09:58:16.956Z,1020.94
2018-02-21T09:59:16.963Z,1020.93
2018-02-21T10:00:16.990Z,1020.87
2018-02-21T10:01:16.993Z,1020.83
2018-02-21T10:02:17.006Z,1020.87
2018-02-21T10:03:17.012Z,1020.80
2018-02-21T10:04:17.029Z,1020.86
2018-02-21T10:05:17.039Z,1020.81
2018-02-21T10:06:17.061Z,1020.76
2018-02-21T10:07:17.063Z,1020.70
2018-02-21T10:08:17.116Z,1020.64
2018-02-21T10:09:17.089Z,1020.55
2018-02-21T10:10:17.097Z,1020.52
2018-02-21T10:11:17.109Z,1020.55
2018-02-21T10:12:17.130Z,1020.55
2018-02-21T10:13:17.136Z,1020.57
2018-02-21T10:14:17.144Z,1020.58
2018-02-21T10:15:17.163Z,1020.56
2018-02-21T10:16:17.173Z,1020.60
2018-02-21T10:17:17.184Z,1020.64
2018-02-21T10:18:17.191Z,1020.69
2018-02-21T10:19:17.223Z,1020.73
2018-02-21T10:20:17.226Z,1020.76
2018-02-21T10:21:17.229Z,1020.79
2018-02-21T10:22:17.238Z,1020.83
2018-02-21T10:23:17.248Z,1020.94
2018-02-21T10:24:17.261Z,1020.95
2018-02-21T10:25:17.273Z,1021.07
2018-02-21T10:26:17.284Z,1021.08
2018-02-21T10:27:17.297Z,1021.02
2018-02-21T10:28:17.306Z,1021.04
2018-02-21T10:29:17.319Z,1021.00
2018-02-21T10:30:17.328Z,1020.88
2018-02-21T10:31:17.337Z,1020.79
2018-02-21T10:32:17.347Z,1020.72
2018-02-21T10:33:17.360Z,1020.78
2018-02-21T10:34:17.377Z,1020.80
2018-02-21T10:35:17.391Z,1020.75
2018-02-21T10:36:17.393Z,1020.71
2018-02-21T10:37:17.403Z,1020.69
2018-02-21T10:38:17.432Z,1020.59
2018-02-21T10:39:17.425Z,1020.61
2018-02-21T10:40:17.436Z,1020.64
2018-02-21T10:41:17.449Z,1020.58
2018-02-21T10:42:17.459Z,1020.60
2018-02-21T10:43:17.474Z,1020.60
2018-02-21T10:44:17.483Z,1020.60
2018-02-21T10:45:17.491Z,1020.57
2018-02-21T10:46:17.502Z,1020.52
2018-02-21T10:47:17.516Z,1020.54
2018-02-21T10:48:17.522Z,1020.54
2018-02-21T10:49:17.534Z,1020.49
2018-02-21T10:50:17.597Z,1020.48
2018-02-21T10:51:17.599Z,1020.44
2018-02-21T10:52:17.609Z,1020.43
2018-02-21T10:53:17.651Z,1020.39
2018-02-21T10:54:17.637Z,1020.40
2018-02-21T10:55:17.609Z,1020.37
2018-02-21T10:56:17.656Z,1020.40
2018-02-21T10:57:17.623Z,1020.33
2018-02-21T10:58:17.657Z,1020.30
2018-02-21T10:59:17.685Z,1020.25
2018-02-21T11:00:17.651Z,1020.23
2018-02-21T11:01:17.658Z,1020.25
2018-02-21T11:02:17.668Z,1020.16
2018-02-21T11:03:18.572Z,1020.15
2018-02-21T11:04:17.736Z,1020.17
2018-02-21T11:05:17.790Z,1020.12
2018-02-21T11:06:17.854Z,1020.11
2018-02-21T11:07:17.786Z,1020.09
2018-02-21T11:08:17.840Z,1020.09
2018-02-21T11:09:17.849Z,1020.05
2018-02-21T11:10:17.889Z,1019.97
2018-02-21T11:11:17.860Z,1020.00
2018-02-21T11:12:17.859Z,1020.02
2018-02-21T11:13:17.885Z,1020.01
2018-02-21T11:14:17.845Z,1020.03
2018-02-21T11:15:17.864Z,1020.04
2018-02-21T11:16:17.850Z,1020.04
2018-02-21T11:17:17.871Z,1020.03
2018-02-21T11:18:17.902Z,1019.98
2018-02-21T11:19:17.821Z,1020.02
2018-02-21T11:20:18.544Z,1020.06
2018-02-21T11:21:17.833Z,1020.08
2018-02-21T11:22:17.842Z,1020.03
2018-02-21T11:23:17.855Z,1020.07
2018-02-21T11:24:17.859Z,1020.02
2018-02-21T11:25:17.864Z,1020.01
2018-02-21T11:26:17.876Z,1019.96
2018-02-21T11:27:17.883Z,1020.02
2018-02-21T11:28:17.894Z,1020.02
2018-02-21T11:29:17.895Z,1019.98
2018-02-21T11:30:17.950Z,1020.03
2018-02-21T11:31:17.913Z,1020.01
2018-02-21T11:32:17.923Z,1019.98
2018-02-21T11:33:17.927Z,1019.98
2018-02-21T11:34:17.936Z,1019.99
2018-02-21T11:35:17.943Z,1019.96
2018-02-21T11:36:17.954Z,1019.96
2018-02-21T11:37:17.960Z,1019.95
2018-02-21T11:38:17.971Z,1019.91
2018-02-21T11:39:17.972Z,1019.94
2018-02-21T11:40:17.991Z,1019.86
2018-02-21T11:41:17.986Z,1019.95
2018-02-21T11:42:17.995Z,1019.90
2018-02-21T11:43:18.001Z,1019.91
2018-02-21T11:44:18.012Z,1019.86
2018-02-21T11:45:18.015Z,1019.98
2018-02-21T11:46:18.020Z,1019.91
2018-02-21T11:47:18.035Z,1019.90
2018-02-21T11:48:18.039Z,1019.93
2018-02-21T11:49:18.089Z,1019.91
2018-02-21T11:50:18.043Z,1019.92
2018-02-21T11:51:18.057Z,1019.95
2018-02-21T11:52:18.061Z,1019.94
2018-02-21T11:53:18.073Z,1019.86
2018-02-21T11:54:18.075Z,1019.87
2018-02-21T11:55:18.130Z,1019.87
2018-02-21T11:56:18.095Z,1019.78
2018-02-21T11:57:18.128Z,1019.77
2018-02-21T11:58:18.107Z,1019.74
2018-02-21T11:59:18.146Z,1019.75
2018-02-21T12:00:18.109Z,1019.78
2018-02-21T12:01:18.114Z,1019.76
2018-02-21T12:02:18.125Z,1019.76
2018-02-21T12:03:18.129Z,1019.71
2018-02-21T12:04:18.137Z,1019.81
2018-02-21T12:05:18.142Z,1019.74
2018-02-21T12:06:18.147Z,1019.71
2018-02-21T12:07:18.149Z,1019.73
2018-02-21T12:08:18.158Z,1019.71
2018-02-21T12:09:18.160Z,1019.62
2018-02-21T12:10:18.173Z,1019.65
2018-02-21T12:11:18.176Z,1019.72
2018-02-21T12:12:18.218Z,1019.58
2018-02-21T12:13:18.185Z,1019.59
2018-02-21T12:14:18.189Z,1019.62
2018-02-21T12:15:18.193Z,1019.64
2018-02-21T12:16:18.207Z,1019.60
2018-02-21T12:17:18.201Z,1019.57
2018-02-21T12:18:18.208Z,1019.48
2018-02-21T12:19:18.212Z,1019.46
2018-02-21T12:20:18.219Z,1019.49
2018-02-21T12:21:18.226Z,1019.52
2018-02-21T12:22:18.231Z,1019.53
2018-02-21T12:23:18.237Z,1019.55
2018-02-21T12:24:18.238Z,1019.47
2018-02-21T12:25:18.245Z,1019.45
2018-02-21T12:26:18.252Z,1019.44
2018-02-21T12:27:18.256Z,1019.44
2018-02-21T12:28:18.263Z,1019.51
2018-02-21T12:29:18.266Z,1019.46
2018-02-21T12:30:18.270Z,1019.47
2018-02-21T12:31:18.272Z,1019.40
2018-02-21T12:32:18.277Z,1019.44
2018-02-21T12:33:18.280Z,1019.46
2018-02-21T12:34:18.291Z,1019.47
2018-02-21T12:35:18.289Z,1019.39
2018-02-21T12:36:18.301Z,1019.40
2018-02-21T12:37:18.300Z,1019.39
2018-02-21T12:38:18.308Z,1019.41
2018-02-21T12:39:18.310Z,1019.40
2018-02-21T12:40:18.320Z,1019.38
2018-02-21T12:41:18.318Z,1019.40
2018-02-21T12:42:18.325Z,1019.42
2018-02-21T12:43:18.328Z,1019.39
2018-02-21T12:44:18.332Z,1019.35
2018-02-21T12:45:18.336Z,1019.29
2018-02-21T12:46:18.346Z,1019.27
2018-02-21T12:47:18.345Z,1019.43